sensor_id;sensor_type;location;lat;lon;timestamp;P1;P2;P0
40569;PMS5003;26270;34.428;-119.710;2022-09-27T00:01:07;9;8;
40569;PMS5003;26270;34.428;-119.710;2022-09-27T00:03:38;7;7;
40569;PMS5003;26270;34.428;-119.710;2022-09-27T00:06:08;8;6;
40569;PMS5003;26270;34.428;-119.710;2022-09-27T00:08:39;6;6;
40569;PMS5003;26270;34.428;-119.710;2022-09-27T00:11:10;8;8;
40569;PMS5003;26270;34.428;-119.710;2022-09-27T00:13:43;5;5;
40569;PMS5003;26270;34.428;-119.710;2022-09-27T00:16:11;8;8;
40569;PMS5003;26270;34.428;-119.710;2022-09-27T00:18:39;7;6;
40569;PMS5003;26270;34.428;-119.710;2022-09-27T00:21:09;8;7;
40569;PMS5003;26270;34.428;-119.710;2022-09-27T00:23:39;11;9;
40569;PMS5003;26270;34.428;-119.710;2022-09-27T00:26:07;7;7;
40569;PMS5003;26270;34.428;-119.710;2022-09-27T00:28:37;6;6;
40569;PMS5003;26270;34.428;-119.710;2022-09-27T00:31:10;8;8;
40569;PMS5003;26270;34.428;-119.710;2022-09-27T00:33:44;9;9;
40569;PMS5003;26270;34.428;-119.710;2022-09-27T00:36:13;6;6;
40569;PMS5003;26270;34.428;-119.710;2022-09-27T00:38:42;8;8;
40569;PMS5003;26270;34.428;-119.710;2022-09-27T00:41:12;7;7;
40569;PMS5003;26270;34.428;-119.710;2022-09-27T00:43:44;9;7;
40569;PMS5003;26270;34.428;-119.710;2022-09-27T00:46:18;7;7;
40569;PMS5003;26270;34.428;-119.710;2022-09-27T00:48:54;7;7;
40569;PMS5003;26270;34.428;-119.710;2022-09-27T00:51:30;9;8;
40569;PMS5003;26270;34.428;-119.710;2022-09-27T00:54:03;10;8;
40569;PMS5003;26270;34.428;-119.710;2022-09-27T00:56:35;8;8;
40569;PMS5003;26270;34.428;-119.710;2022-09-27T00:59:06;11;11;
40569;PMS5003;26270;34.428;-119.710;2022-09-27T01:01:37;11;10;
40569;PMS5003;26270;34.428;-119.710;2022-09-27T01:04:08;13;12;
40569;PMS5003;26270;34.428;-119.710;2022-09-27T01:06:38;12;11;
40569;PMS5003;26270;34.428;-119.710;2022-09-27T01:09:07;13;9;
40569;PMS5003;26270;34.428;-119.710;2022-09-27T01:11:39;11;11;
40569;PMS5003;26270;34.428;-119.710;2022-09-27T01:14:22;11;9;
40569;PMS5003;26270;34.428;-119.710;2022-09-27T01:17:03;14;12;
40569;PMS5003;26270;34.428;-119.710;2022-09-27T01:19:49;15;15;
40569;PMS5003;26270;34.428;-119.710;2022-09-27T01:22:41;11;11;
40569;PMS5003;26270;34.428;-119.710;2022-09-27T01:25:26;15;12;
40569;PMS5003;26270;34.428;-119.710;2022-09-27T01:28:17;21;13;
40569;PMS5003;26270;34.428;-119.710;2022-09-27T01:30:49;10;8;
40569;PMS5003;26270;34.428;-119.710;2022-09-27T01:33:27;11;10;
40569;PMS5003;26270;34.428;-119.710;2022-09-27T01:36:06;13;13;
40569;PMS5003;26270;34.428;-119.710;2022-09-27T01:38:46;13;10;
40569;PMS5003;26270;34.428;-119.710;2022-09-27T01:41:28;12;10;
40569;PMS5003;26270;34.428;-119.710;2022-09-27T01:44:02;13;10;
40569;PMS5003;26270;34.428;-119.710;2022-09-27T01:46:35;15;13;
40569;PMS5003;26270;34.428;-119.710;2022-09-27T01:49:08;11;10;
40569;PMS5003;26270;34.428;-119.710;2022-09-27T01:51:44;9;9;
40569;PMS5003;26270;34.428;-119.710;2022-09-27T01:54:18;10;9;
40569;PMS5003;26270;34.428;-119.710;2022-09-27T01:56:53;13;12;
40569;PMS5003;26270;34.428;-119.710;2022-09-27T01:59:24;13;11;
40569;PMS5003;26270;34.428;-119.710;2022-09-27T02:01:58;12;11;
40569;PMS5003;26270;34.428;-119.710;2022-09-27T02:04:30;9;8;
40569;PMS5003;26270;34.428;-119.710;2022-09-27T02:07:00;15;12;
40569;PMS5003;26270;34.428;-119.710;2022-09-27T02:09:36;10;9;
40569;PMS5003;26270;34.428;-119.710;2022-09-27T02:12:10;14;9;
40569;PMS5003;26270;34.428;-119.710;2022-09-27T02:14:44;14;12;
40569;PMS5003;26270;34.428;-119.710;2022-09-27T02:17:19;15;11;
40569;PMS5003;26270;34.428;-119.710;2022-09-27T02:19:53;12;12;
40569;PMS5003;26270;34.428;-119.710;2022-09-27T02:22:31;10;10;
40569;PMS5003;26270;34.428;-119.710;2022-09-27T02:25:03;11;10;
40569;PMS5003;26270;34.428;-119.710;2022-09-27T02:27:42;12;10;
40569;PMS5003;26270;34.428;-119.710;2022-09-27T02:30:16;14;12;
40569;PMS5003;26270;34.428;-119.710;2022-09-27T02:32:44;16;12;
40569;PMS5003;26270;34.428;-119.710;2022-09-27T02:35:14;10;9;
40569;PMS5003;26270;34.428;-119.710;2022-09-27T02:37:45;16;12;
40569;PMS5003;26270;34.428;-119.710;2022-09-27T02:40:13;11;10;
40569;PMS5003;26270;34.428;-119.710;2022-09-27T02:42:41;15;13;
40569;PMS5003;26270;34.428;-119.710;2022-09-27T02:45:12;20;16;
40569;PMS5003;26270;34.428;-119.710;2022-09-27T02:47:48;16;14;
40569;PMS5003;26270;34.428;-119.710;2022-09-27T02:50:32;13;12;
40569;PMS5003;26270;34.428;-119.710;2022-09-27T02:53:13;13;10;
40569;PMS5003;26270;34.428;-119.710;2022-09-27T02:55:54;15;11;
40569;PMS5003;26270;34.428;-119.710;2022-09-27T02:58:32;13;11;
40569;PMS5003;26270;34.428;-119.710;2022-09-27T03:01:11;12;11;
40569;PMS5003;26270;34.428;-119.710;2022-09-27T03:03:48;12;11;
40569;PMS5003;26270;34.428;-119.710;2022-09-27T03:06:21;12;11;
40569;PMS5003;26270;34.428;-119.710;2022-09-27T03:08:52;12;11;
40569;PMS5003;26270;34.428;-119.710;2022-09-27T03:11:20;11;10;
40569;PMS5003;26270;34.428;-119.710;2022-09-27T03:13:48;12;10;
40569;PMS5003;26270;34.428;-119.710;2022-09-27T03:16:17;15;11;
40569;PMS5003;26270;34.428;-119.710;2022-09-27T03:18:46;13;13;
40569;PMS5003;26270;34.428;-119.710;2022-09-27T03:21:14;27;24;
40569;PMS5003;26270;34.428;-119.710;2022-09-27T03:23:41;15;9;
40569;PMS5003;26270;34.428;-119.710;2022-09-27T03:26:10;24;15;
40569;PMS5003;26270;34.428;-119.710;2022-09-27T03:28:38;26;23;
40569;PMS5003;26270;34.428;-119.710;2022-09-27T03:31:06;18;10;
40569;PMS5003;26270;34.428;-119.710;2022-09-27T03:33:35;18;16;
40569;PMS5003;26270;34.428;-119.710;2022-09-27T03:36:03;23;17;
40569;PMS5003;26270;34.428;-119.710;2022-09-27T03:38:32;25;16;
40569;PMS5003;26270;34.428;-119.710;2022-09-27T03:41:00;24;18;
40569;PMS5003;26270;34.428;-119.710;2022-09-27T03:43:28;23;16;
40569;PMS5003;26270;34.428;-119.710;2022-09-27T03:45:56;22;19;
40569;PMS5003;26270;34.428;-119.710;2022-09-27T03:48:25;43;38;
40569;PMS5003;26270;34.428;-119.710;2022-09-27T03:50:53;19;14;
40569;PMS5003;26270;34.428;-119.710;2022-09-27T03:53:21;23;20;
40569;PMS5003;26270;34.428;-119.710;2022-09-27T03:55:50;37;30;
40569;PMS5003;26270;34.428;-119.710;2022-09-27T03:58:18;43;37;
40569;PMS5003;26270;34.428;-119.710;2022-09-27T04:03:18;12;10;
40569;PMS5003;26270;34.428;-119.710;2022-09-27T04:05:47;14;13;
40569;PMS5003;26270;34.428;-119.710;2022-09-27T04:08:15;13;11;
40569;PMS5003;26270;34.428;-119.710;2022-09-27T04:10:44;12;10;
40569;PMS5003;26270;34.428;-119.710;2022-09-27T04:13:12;13;10;
40569;PMS5003;26270;34.428;-119.710;2022-09-27T04:15:41;13;11;
40569;PMS5003;26270;34.428;-119.710;2022-09-27T04:18:09;13;9;
40569;PMS5003;26270;34.428;-119.710;2022-09-27T04:20:37;13;11;
40569;PMS5003;26270;34.428;-119.710;2022-09-27T04:23:05;13;9;
40569;PMS5003;26270;34.428;-119.710;2022-09-27T04:25:34;12;11;
40569;PMS5003;26270;34.428;-119.710;2022-09-27T04:28:02;14;10;
40569;PMS5003;26270;34.428;-119.710;2022-09-27T04:30:30;16;13;
40569;PMS5003;26270;34.428;-119.710;2022-09-27T04:32:58;13;11;
40569;PMS5003;26270;34.428;-119.710;2022-09-27T04:35:27;13;9;
40569;PMS5003;26270;34.428;-119.710;2022-09-27T04:37:55;18;10;
40569;PMS5003;26270;34.428;-119.710;2022-09-27T04:40:24;12;9;
40569;PMS5003;26270;34.428;-119.710;2022-09-27T04:42:52;12;11;
40569;PMS5003;26270;34.428;-119.710;2022-09-27T04:45:20;12;11;
40569;PMS5003;26270;34.428;-119.710;2022-09-27T04:47:49;12;9;
40569;PMS5003;26270;34.428;-119.710;2022-09-27T04:50:17;12;9;
40569;PMS5003;26270;34.428;-119.710;2022-09-27T04:52:49;18;13;
40569;PMS5003;26270;34.428;-119.710;2022-09-27T04:55:18;12;10;
40569;PMS5003;26270;34.428;-119.710;2022-09-27T04:57:47;13;10;
40569;PMS5003;26270;34.428;-119.710;2022-09-27T05:00:16;17;13;
40569;PMS5003;26270;34.428;-119.710;2022-09-27T05:02:45;14;11;
40569;PMS5003;26270;34.428;-119.710;2022-09-27T05:05:13;12;10;
40569;PMS5003;26270;34.428;-119.710;2022-09-27T05:07:42;13;12;
40569;PMS5003;26270;34.428;-119.710;2022-09-27T05:10:10;12;10;
40569;PMS5003;26270;34.428;-119.710;2022-09-27T05:12:38;13;13;
40569;PMS5003;26270;34.428;-119.710;2022-09-27T05:15:08;14;10;
40569;PMS5003;26270;34.428;-119.710;2022-09-27T05:17:36;13;9;
40569;PMS5003;26270;34.428;-119.710;2022-09-27T05:20:05;13;11;
40569;PMS5003;26270;34.428;-119.710;2022-09-27T05:22:33;14;13;
40569;PMS5003;26270;34.428;-119.710;2022-09-27T05:25:01;17;13;
40569;PMS5003;26270;34.428;-119.710;2022-09-27T05:27:30;11;10;
40569;PMS5003;26270;34.428;-119.710;2022-09-27T05:29:58;12;10;
40569;PMS5003;26270;34.428;-119.710;2022-09-27T05:32:26;19;14;
40569;PMS5003;26270;34.428;-119.710;2022-09-27T05:34:54;14;13;
40569;PMS5003;26270;34.428;-119.710;2022-09-27T05:37:22;13;11;
40569;PMS5003;26270;34.428;-119.710;2022-09-27T05:39:50;15;13;
40569;PMS5003;26270;34.428;-119.710;2022-09-27T05:42:18;11;10;
40569;PMS5003;26270;34.428;-119.710;2022-09-27T05:44:46;15;12;
40569;PMS5003;26270;34.428;-119.710;2022-09-27T05:47:14;12;11;
40569;PMS5003;26270;34.428;-119.710;2022-09-27T05:49:43;17;12;
40569;PMS5003;26270;34.428;-119.710;2022-09-27T05:52:11;15;11;
40569;PMS5003;26270;34.428;-119.710;2022-09-27T05:54:40;17;15;
40569;PMS5003;26270;34.428;-119.710;2022-09-27T05:57:07;13;11;
40569;PMS5003;26270;34.428;-119.710;2022-09-27T05:59:35;15;13;
40569;PMS5003;26270;34.428;-119.710;2022-09-27T06:02:03;15;11;
40569;PMS5003;26270;34.428;-119.710;2022-09-27T06:04:32;16;12;
40569;PMS5003;26270;34.428;-119.710;2022-09-27T06:07:00;12;10;
40569;PMS5003;26270;34.428;-119.710;2022-09-27T06:09:28;17;12;
40569;PMS5003;26270;34.428;-119.710;2022-09-27T06:11:56;10;9;
40569;PMS5003;26270;34.428;-119.710;2022-09-27T06:14:24;13;11;
40569;PMS5003;26270;34.428;-119.710;2022-09-27T06:16:53;22;11;
40569;PMS5003;26270;34.428;-119.710;2022-09-27T06:19:21;15;12;
40569;PMS5003;26270;34.428;-119.710;2022-09-27T06:21:49;12;10;
40569;PMS5003;26270;34.428;-119.710;2022-09-27T06:24:17;10;9;
40569;PMS5003;26270;34.428;-119.710;2022-09-27T06:26:45;16;12;
40569;PMS5003;26270;34.428;-119.710;2022-09-27T06:29:13;11;10;
40569;PMS5003;26270;34.428;-119.710;2022-09-27T06:31:41;15;13;
40569;PMS5003;26270;34.428;-119.710;2022-09-27T06:34:10;16;12;
40569;PMS5003;26270;34.428;-119.710;2022-09-27T06:36:38;15;13;
40569;PMS5003;26270;34.428;-119.710;2022-09-27T06:39:06;14;12;
40569;PMS5003;26270;34.428;-119.710;2022-09-27T06:41:34;17;13;
40569;PMS5003;26270;34.428;-119.710;2022-09-27T06:44:03;11;9;
40569;PMS5003;26270;34.428;-119.710;2022-09-27T06:46:30;11;10;
40569;PMS5003;26270;34.428;-119.710;2022-09-27T06:48:59;12;10;
40569;PMS5003;26270;34.428;-119.710;2022-09-27T06:51:27;15;14;
40569;PMS5003;26270;34.428;-119.710;2022-09-27T06:53:55;15;12;
40569;PMS5003;26270;34.428;-119.710;2022-09-27T06:56:24;14;12;
40569;PMS5003;26270;34.428;-119.710;2022-09-27T06:58:52;12;11;
40569;PMS5003;26270;34.428;-119.710;2022-09-27T07:01:20;12;10;
40569;PMS5003;26270;34.428;-119.710;2022-09-27T07:03:53;13;11;
40569;PMS5003;26270;34.428;-119.710;2022-09-27T07:06:21;13;10;
40569;PMS5003;26270;34.428;-119.710;2022-09-27T07:08:49;13;12;
40569;PMS5003;26270;34.428;-119.710;2022-09-27T07:11:18;13;11;
40569;PMS5003;26270;34.428;-119.710;2022-09-27T07:13:46;17;12;
40569;PMS5003;26270;34.428;-119.710;2022-09-27T07:16:15;14;12;
40569;PMS5003;26270;34.428;-119.710;2022-09-27T07:18:43;16;12;
40569;PMS5003;26270;34.428;-119.710;2022-09-27T07:21:13;10;10;
40569;PMS5003;26270;34.428;-119.710;2022-09-27T07:23:41;13;9;
40569;PMS5003;26270;34.428;-119.710;2022-09-27T07:26:10;14;11;
40569;PMS5003;26270;34.428;-119.710;2022-09-27T07:28:38;22;12;
40569;PMS5003;26270;34.428;-119.710;2022-09-27T07:31:06;21;14;
40569;PMS5003;26270;34.428;-119.710;2022-09-27T07:33:35;12;10;
40569;PMS5003;26270;34.428;-119.710;2022-09-27T07:36:06;17;12;
40569;PMS5003;26270;34.428;-119.710;2022-09-27T07:38:36;16;11;
40569;PMS5003;26270;34.428;-119.710;2022-09-27T07:41:05;15;13;
40569;PMS5003;26270;34.428;-119.710;2022-09-27T07:43:34;14;12;
40569;PMS5003;26270;34.428;-119.710;2022-09-27T07:46:01;15;11;
40569;PMS5003;26270;34.428;-119.710;2022-09-27T07:48:30;9;9;
40569;PMS5003;26270;34.428;-119.710;2022-09-27T07:50:58;13;11;
40569;PMS5003;26270;34.428;-119.710;2022-09-27T07:53:26;13;11;
40569;PMS5003;26270;34.428;-119.710;2022-09-27T07:55:54;13;10;
40569;PMS5003;26270;34.428;-119.710;2022-09-27T07:58:22;16;11;
40569;PMS5003;26270;34.428;-119.710;2022-09-27T08:00:55;11;10;
40569;PMS5003;26270;34.428;-119.710;2022-09-27T08:03:25;14;13;
40569;PMS5003;26270;34.428;-119.710;2022-09-27T08:05:53;15;11;
40569;PMS5003;26270;34.428;-119.710;2022-09-27T08:08:22;14;10;
40569;PMS5003;26270;34.428;-119.710;2022-09-27T08:10:50;15;13;
40569;PMS5003;26270;34.428;-119.710;2022-09-27T08:13:18;15;13;
40569;PMS5003;26270;34.428;-119.710;2022-09-27T08:15:46;13;9;
40569;PMS5003;26270;34.428;-119.710;2022-09-27T08:18:15;15;13;
40569;PMS5003;26270;34.428;-119.710;2022-09-27T08:20:42;16;11;
40569;PMS5003;26270;34.428;-119.710;2022-09-27T08:23:10;11;10;
40569;PMS5003;26270;34.428;-119.710;2022-09-27T08:25:38;15;12;
40569;PMS5003;26270;34.428;-119.710;2022-09-27T08:28:07;15;11;
40569;PMS5003;26270;34.428;-119.710;2022-09-27T08:30:35;12;10;
40569;PMS5003;26270;34.428;-119.710;2022-09-27T08:33:04;12;11;
40569;PMS5003;26270;34.428;-119.710;2022-09-27T08:35:32;15;13;
40569;PMS5003;26270;34.428;-119.710;2022-09-27T08:38:00;13;12;
40569;PMS5003;26270;34.428;-119.710;2022-09-27T08:40:33;13;11;
40569;PMS5003;26270;34.428;-119.710;2022-09-27T08:43:11;14;12;
40569;PMS5003;26270;34.428;-119.710;2022-09-27T08:45:52;13;11;
40569;PMS5003;26270;34.428;-119.710;2022-09-27T08:48:29;17;13;
40569;PMS5003;26270;34.428;-119.710;2022-09-27T08:50:59;16;13;
40569;PMS5003;26270;34.428;-119.710;2022-09-27T08:53:32;10;9;
40569;PMS5003;26270;34.428;-119.710;2022-09-27T08:56:05;13;12;
40569;PMS5003;26270;34.428;-119.710;2022-09-27T08:58:36;12;12;
40569;PMS5003;26270;34.428;-119.710;2022-09-27T09:01:10;15;11;
40569;PMS5003;26270;34.428;-119.710;2022-09-27T09:03:43;14;12;
40569;PMS5003;26270;34.428;-119.710;2022-09-27T09:06:16;21;10;
40569;PMS5003;26270;34.428;-119.710;2022-09-27T09:08:51;13;12;
40569;PMS5003;26270;34.428;-119.710;2022-09-27T09:11:42;11;11;
40569;PMS5003;26270;34.428;-119.710;2022-09-27T09:14:23;16;11;
40569;PMS5003;26270;34.428;-119.710;2022-09-27T09:17:16;18;13;
40569;PMS5003;26270;34.428;-119.710;2022-09-27T09:19:58;18;13;
40569;PMS5003;26270;34.428;-119.710;2022-09-27T09:22:45;14;13;
40569;PMS5003;26270;34.428;-119.710;2022-09-27T09:25:27;15;12;
40569;PMS5003;26270;34.428;-119.710;2022-09-27T09:28:03;21;15;
40569;PMS5003;26270;34.428;-119.710;2022-09-27T09:30:45;15;13;
40569;PMS5003;26270;34.428;-119.710;2022-09-27T09:33:21;14;11;
40569;PMS5003;26270;34.428;-119.710;2022-09-27T09:35:55;14;12;
40569;PMS5003;26270;34.428;-119.710;2022-09-27T09:38:31;13;10;
40569;PMS5003;26270;34.428;-119.710;2022-09-27T09:41:06;14;10;
40569;PMS5003;26270;34.428;-119.710;2022-09-27T09:43:42;14;12;
40569;PMS5003;26270;34.428;-119.710;2022-09-27T09:46:16;17;13;
40569;PMS5003;26270;34.428;-119.710;2022-09-27T09:48:50;15;11;
40569;PMS5003;26270;34.428;-119.710;2022-09-27T09:51:25;19;11;
40569;PMS5003;26270;34.428;-119.710;2022-09-27T09:53:59;15;9;
40569;PMS5003;26270;34.428;-119.710;2022-09-27T09:56:34;14;12;
40569;PMS5003;26270;34.428;-119.710;2022-09-27T09:59:09;18;13;
40569;PMS5003;26270;34.428;-119.710;2022-09-27T10:01:45;18;15;
40569;PMS5003;26270;34.428;-119.710;2022-09-27T10:04:17;12;10;
40569;PMS5003;26270;34.428;-119.710;2022-09-27T10:06:46;18;12;
40569;PMS5003;26270;34.428;-119.710;2022-09-27T10:09:16;14;12;
40569;PMS5003;26270;34.428;-119.710;2022-09-27T10:11:48;10;10;
40569;PMS5003;26270;34.428;-119.710;2022-09-27T10:14:17;11;10;
40569;PMS5003;26270;34.428;-119.710;2022-09-27T10:16:48;18;13;
40569;PMS5003;26270;34.428;-119.710;2022-09-27T10:19:25;12;11;
40569;PMS5003;26270;34.428;-119.710;2022-09-27T10:21:58;15;11;
40569;PMS5003;26270;34.428;-119.710;2022-09-27T10:24:29;13;12;
40569;PMS5003;26270;34.428;-119.710;2022-09-27T10:27:20;16;13;
40569;PMS5003;26270;34.428;-119.710;2022-09-27T10:29:55;20;12;
40569;PMS5003;26270;34.428;-119.710;2022-09-27T10:32:27;14;13;
40569;PMS5003;26270;34.428;-119.710;2022-09-27T10:35:18;13;12;
40569;PMS5003;26270;34.428;-119.710;2022-09-27T10:37:48;16;14;
40569;PMS5003;26270;34.428;-119.710;2022-09-27T10:40:26;18;15;
40569;PMS5003;26270;34.428;-119.710;2022-09-27T10:42:55;14;12;
40569;PMS5003;26270;34.428;-119.710;2022-09-27T10:45:26;13;11;
40569;PMS5003;26270;34.428;-119.710;2022-09-27T10:47:56;14;9;
40569;PMS5003;26270;34.428;-119.710;2022-09-27T10:50:26;17;16;
40569;PMS5003;26270;34.428;-119.710;2022-09-27T10:53:04;16;13;
40569;PMS5003;26270;34.428;-119.710;2022-09-27T10:55:46;15;11;
40569;PMS5003;26270;34.428;-119.710;2022-09-27T10:58:16;12;11;
40569;PMS5003;26270;34.428;-119.710;2022-09-27T11:00:53;17;13;
40569;PMS5003;26270;34.428;-119.710;2022-09-27T11:03:23;15;13;
40569;PMS5003;26270;34.428;-119.710;2022-09-27T11:05:53;16;11;
40569;PMS5003;26270;34.428;-119.710;2022-09-27T11:08:24;15;15;
40569;PMS5003;26270;34.428;-119.710;2022-09-27T11:11:00;18;11;
40569;PMS5003;26270;34.428;-119.710;2022-09-27T11:13:32;13;10;
40569;PMS5003;26270;34.428;-119.710;2022-09-27T11:16:05;22;14;
40569;PMS5003;26270;34.428;-119.710;2022-09-27T11:18:46;10;10;
40569;PMS5003;26270;34.428;-119.710;2022-09-27T11:21:25;14;12;
40569;PMS5003;26270;34.428;-119.710;2022-09-27T11:24:04;11;11;
40569;PMS5003;26270;34.428;-119.710;2022-09-27T11:26:44;16;11;
40569;PMS5003;26270;34.428;-119.710;2022-09-27T11:29:22;17;12;
40569;PMS5003;26270;34.428;-119.710;2022-09-27T11:32:06;20;13;
40569;PMS5003;26270;34.428;-119.710;2022-09-27T11:34:48;13;12;
40569;PMS5003;26270;34.428;-119.710;2022-09-27T11:37:39;15;14;
40569;PMS5003;26270;34.428;-119.710;2022-09-27T11:40:20;13;12;
40569;PMS5003;26270;34.428;-119.710;2022-09-27T11:43:04;15;13;
40569;PMS5003;26270;34.428;-119.710;2022-09-27T11:45:45;13;12;
40569;PMS5003;26270;34.428;-119.710;2022-09-27T11:48:28;20;15;
40569;PMS5003;26270;34.428;-119.710;2022-09-27T11:51:11;17;13;
40569;PMS5003;26270;34.428;-119.710;2022-09-27T11:53:59;19;15;
40569;PMS5003;26270;34.428;-119.710;2022-09-27T11:56:45;16;14;
40569;PMS5003;26270;34.428;-119.710;2022-09-27T11:59:28;17;13;
40569;PMS5003;26270;34.428;-119.710;2022-09-27T12:02:18;18;14;
40569;PMS5003;26270;34.428;-119.710;2022-09-27T12:05:03;16;15;
40569;PMS5003;26270;34.428;-119.710;2022-09-27T12:07:44;15;12;
40569;PMS5003;26270;34.428;-119.710;2022-09-27T12:10:22;15;14;
40569;PMS5003;26270;34.428;-119.710;2022-09-27T12:12:52;19;15;
40569;PMS5003;26270;34.428;-119.710;2022-09-27T12:15:23;15;12;
40569;PMS5003;26270;34.428;-119.710;2022-09-27T12:17:57;16;14;
40569;PMS5003;26270;34.428;-119.710;2022-09-27T12:20:33;14;10;
40569;PMS5003;26270;34.428;-119.710;2022-09-27T12:23:05;18;16;
40569;PMS5003;26270;34.428;-119.710;2022-09-27T12:25:38;17;14;
40569;PMS5003;26270;34.428;-119.710;2022-09-27T12:28:08;22;18;
40569;PMS5003;26270;34.428;-119.710;2022-09-27T12:30:45;31;26;
40569;PMS5003;26270;34.428;-119.710;2022-09-27T12:33:17;41;37;
40569;PMS5003;26270;34.428;-119.710;2022-09-27T12:35:56;32;30;
40569;PMS5003;26270;34.428;-119.710;2022-09-27T12:38:36;43;40;
40569;PMS5003;26270;34.428;-119.710;2022-09-27T12:41:07;47;44;
40569;PMS5003;26270;34.428;-119.710;2022-09-27T12:43:39;50;46;
40569;PMS5003;26270;34.428;-119.710;2022-09-27T12:46:11;36;35;
40569;PMS5003;26270;34.428;-119.710;2022-09-27T12:48:51;41;39;
40569;PMS5003;26270;34.428;-119.710;2022-09-27T12:51:29;41;38;
40569;PMS5003;26270;34.428;-119.710;2022-09-27T12:54:06;36;33;
40569;PMS5003;26270;34.428;-119.710;2022-09-27T12:56:49;47;44;
40569;PMS5003;26270;34.428;-119.710;2022-09-27T12:59:33;45;43;
40569;PMS5003;26270;34.428;-119.710;2022-09-27T13:02:20;40;36;
40569;PMS5003;26270;34.428;-119.710;2022-09-27T13:05:10;15;12;
40569;PMS5003;26270;34.428;-119.710;2022-09-27T13:07:57;39;34;
40569;PMS5003;26270;34.428;-119.710;2022-09-27T13:10:35;37;36;
40569;PMS5003;26270;34.428;-119.710;2022-09-27T13:13:10;21;18;
40569;PMS5003;26270;34.428;-119.710;2022-09-27T13:15:40;59;58;
40569;PMS5003;26270;34.428;-119.710;2022-09-27T13:18:28;111;107;
40569;PMS5003;26270;34.428;-119.710;2022-09-27T13:20:58;48;46;
40569;PMS5003;26270;34.428;-119.710;2022-09-27T13:23:52;18;13;
40569;PMS5003;26270;34.428;-119.710;2022-09-27T13:26:23;28;17;
40569;PMS5003;26270;34.428;-119.710;2022-09-27T13:29:20;122;120;
40569;PMS5003;26270;34.428;-119.710;2022-09-27T13:32:13;33;30;
40569;PMS5003;26270;34.428;-119.710;2022-09-27T13:34:44;78;75;
40569;PMS5003;26270;34.428;-119.710;2022-09-27T13:37:48;99;94;
40569;PMS5003;26270;34.428;-119.710;2022-09-27T13:40:21;42;39;
40569;PMS5003;26270;34.428;-119.710;2022-09-27T13:42:57;33;30;
40569;PMS5003;26270;34.428;-119.710;2022-09-27T13:45:48;30;27;
40569;PMS5003;26270;34.428;-119.710;2022-09-27T13:48:20;67;62;
40569;PMS5003;26270;34.428;-119.710;2022-09-27T13:50:58;72;72;
40569;PMS5003;26270;34.428;-119.710;2022-09-27T13:53:30;34;28;
40569;PMS5003;26270;34.428;-119.710;2022-09-27T13:56:00;39;36;
40569;PMS5003;26270;34.428;-119.710;2022-09-27T13:58:34;29;22;
40569;PMS5003;26270;34.428;-119.710;2022-09-27T14:01:19;23;15;
40569;PMS5003;26270;34.428;-119.710;2022-09-27T14:03:52;35;28;
40569;PMS5003;26270;34.428;-119.710;2022-09-27T14:06:23;65;57;
40569;PMS5003;26270;34.428;-119.710;2022-09-27T14:08:56;41;32;
40569;PMS5003;26270;34.428;-119.710;2022-09-27T14:11:29;29;27;
40569;PMS5003;26270;34.428;-119.710;2022-09-27T14:14:00;15;14;
40569;PMS5003;26270;34.428;-119.710;2022-09-27T14:16:32;14;13;
40569;PMS5003;26270;34.428;-119.710;2022-09-27T14:19:02;16;13;
40569;PMS5003;26270;34.428;-119.710;2022-09-27T14:21:32;16;13;
40569;PMS5003;26270;34.428;-119.710;2022-09-27T14:24:43;23;15;
40569;PMS5003;26270;34.428;-119.710;2022-09-27T14:27:13;14;13;
40569;PMS5003;26270;34.428;-119.710;2022-09-27T14:29:45;13;11;
40569;PMS5003;26270;34.428;-119.710;2022-09-27T14:32:16;15;14;
40569;PMS5003;26270;34.428;-119.710;2022-09-27T14:34:45;14;13;
40569;PMS5003;26270;34.428;-119.710;2022-09-27T14:37:28;13;12;
40569;PMS5003;26270;34.428;-119.710;2022-09-27T14:39:58;17;14;
40569;PMS5003;26270;34.428;-119.710;2022-09-27T14:42:30;34;33;
40569;PMS5003;26270;34.428;-119.710;2022-09-27T14:45:04;26;20;
40569;PMS5003;26270;34.428;-119.710;2022-09-27T14:47:45;29;28;
40569;PMS5003;26270;34.428;-119.710;2022-09-27T14:50:17;21;18;
40569;PMS5003;26270;34.428;-119.710;2022-09-27T14:52:47;21;21;
40569;PMS5003;26270;34.428;-119.710;2022-09-27T14:55:17;15;14;
40569;PMS5003;26270;34.428;-119.710;2022-09-27T14:57:48;22;16;
40569;PMS5003;26270;34.428;-119.710;2022-09-27T15:00:20;22;14;
40569;PMS5003;26270;34.428;-119.710;2022-09-27T15:02:51;14;13;
40569;PMS5003;26270;34.428;-119.710;2022-09-27T15:05:22;16;12;
40569;PMS5003;26270;34.428;-119.710;2022-09-27T15:07:52;22;16;
40569;PMS5003;26270;34.428;-119.710;2022-09-27T15:10:22;18;15;
40569;PMS5003;26270;34.428;-119.710;2022-09-27T15:12:53;19;13;
40569;PMS5003;26270;34.428;-119.710;2022-09-27T15:15:23;17;15;
40569;PMS5003;26270;34.428;-119.710;2022-09-27T15:17:54;16;14;
40569;PMS5003;26270;34.428;-119.710;2022-09-27T15:20:23;13;12;
40569;PMS5003;26270;34.428;-119.710;2022-09-27T15:22:53;19;12;
40569;PMS5003;26270;34.428;-119.710;2022-09-27T15:25:24;17;15;
40569;PMS5003;26270;34.428;-119.710;2022-09-27T15:27:56;15;14;
40569;PMS5003;26270;34.428;-119.710;2022-09-27T15:30:27;20;13;
40569;PMS5003;26270;34.428;-119.710;2022-09-27T15:33:00;22;18;
40569;PMS5003;26270;34.428;-119.710;2022-09-27T15:35:31;18;15;
40569;PMS5003;26270;34.428;-119.710;2022-09-27T15:38:10;19;16;
40569;PMS5003;26270;34.428;-119.710;2022-09-27T15:41:08;16;14;
40569;PMS5003;26270;34.428;-119.710;2022-09-27T15:43:39;16;13;
40569;PMS5003;26270;34.428;-119.710;2022-09-27T15:46:28;16;15;
40569;PMS5003;26270;34.428;-119.710;2022-09-27T15:49:33;17;12;
40569;PMS5003;26270;34.428;-119.710;2022-09-27T15:52:02;16;13;
40569;PMS5003;26270;34.428;-119.710;2022-09-27T15:54:30;17;14;
40569;PMS5003;26270;34.428;-119.710;2022-09-27T15:57:00;17;13;
40569;PMS5003;26270;34.428;-119.710;2022-09-27T15:59:31;15;12;
40569;PMS5003;26270;34.428;-119.710;2022-09-27T16:02:01;13;13;
40569;PMS5003;26270;34.428;-119.710;2022-09-27T16:04:36;19;15;
40569;PMS5003;26270;34.428;-119.710;2022-09-27T16:07:04;17;15;
40569;PMS5003;26270;34.428;-119.710;2022-09-27T16:09:33;16;14;
40569;PMS5003;26270;34.428;-119.710;2022-09-27T16:12:02;15;12;
40569;PMS5003;26270;34.428;-119.710;2022-09-27T16:14:30;16;14;